Time;durP1;ratioP1;P1;durP2;ratioP2;P2;SDS_P1;SDS_P2;PMS_P1;PMS_P2;Temp;Humidity;BMP_temperature;BMP_pressure;BME280_temperature;BME280_humidity;BME280_pressure;Samples;Min_cycle;Max_cycle;Signal;HPM_P1;HPM_P2
2023/01/03 00:01:38;;;;;;;;;;;;;;;11.08;59.43;101518.25;4963913;28;6948;-73
2023/01/03 00:04:04;;;;;;;;;;;;;;;11.05;60.16;101518.94;4960758;28;6796;-73
2023/01/03 00:06:34;;;;;;;;;;;;;;;11.03;59.97;101515.41;4961518;28;6927;-72
2023/01/03 00:09:05;;;;;;;;;;;;;;;11.02;60.10;101523.03;4990983;28;6979;-73
2023/01/03 00:14:24;;;;;;;;;;;;;;;10.92;59.77;101516.38;4960894;28;6840;-73
2023/01/03 00:16:53;;;;;;;;;;;;;;;10.89;59.47;101522.19;4990607;28;6967;-73
2023/01/03 00:19:22;;;;;;;;;;;;;;;10.86;59.92;101524.56;4987302;28;6804;-73
2023/01/03 00:21:48;;;;;;;;;;;;;;;10.81;60.05;101534.53;4980224;28;6950;-73
2023/01/03 00:24:14;;;;;;;;;;;;;;;10.78;59.56;101529.22;4980693;28;8272;-73
2023/01/03 00:26:41;;;;;;;;;;;;;;;10.76;59.60;101540.16;4961401;28;6792;-73
2023/01/03 00:29:07;;;;;;;;;;;;;;;10.73;59.45;101534.84;4964348;28;6799;-73
2023/01/03 00:31:35;;;;;;;;;;;;;;;10.68;59.12;101539.66;4957798;28;7917;-73
2023/01/03 00:34:01;;;;;;;;;;;;;;;10.66;59.35;101543.78;4965183;28;6884;-73
2023/01/03 00:36:26;;;;;;;;;;;;;;;10.62;59.79;101540.16;4980471;28;6946;-73
2023/01/03 00:38:52;;;;;;;;;;;;;;;10.59;59.58;101541.63;4980603;28;7065;-73
2023/01/03 00:41:19;;;;;;;;;;;;;;;10.55;59.99;101545.66;4962512;28;7030;-74
2023/01/03 00:43:48;;;;;;;;;;;;;;;10.53;59.95;101554.91;4954239;28;6788;-73
2023/01/03 00:46:17;;;;;;;;;;;;;;;10.49;60.01;101550.34;4980099;28;6976;-73
2023/01/03 00:48:42;;;;;;;;;;;;;;;10.48;59.98;101548.59;4980825;28;6780;-73
2023/01/03 00:51:19;;;;;;;;;;;;;;;10.46;59.92;101557.84;4972386;28;6958;-73
2023/01/03 00:53:48;;;;;;;;;;;;;;;10.43;60.01;101550.84;4961005;28;6999;-73
2023/01/03 00:56:18;;;;;;;;;;;;;;;10.38;59.88;101553.06;4958357;28;6876;-73
2023/01/03 00:58:44;;;;;;;;;;;;;;;10.35;59.37;101558.00;4979303;28;6887;-72
2023/01/03 01:01:16;;;;;;;;;;;;;;;10.32;59.72;101562.00;4988747;28;7221;-73
2023/01/03 01:03:51;;;;;;;;;;;;;;;10.28;59.56;101560.91;4989462;28;6792;-73
2023/01/03 01:06:22;;;;;;;;;;;;;;;10.24;59.61;101570.06;4953839;28;7260;-73
2023/01/03 01:08:51;;;;;;;;;;;;;;;10.21;59.92;101569.88;4968089;28;6876;-72
2023/01/03 01:11:18;;;;;;;;;;;;;;;10.21;59.81;101574.09;4983898;28;6816;-72
2023/01/03 01:13:45;;;;;;;;;;;;;;;10.18;60.44;101567.06;4957482;28;6864;-73
2023/01/03 01:16:15;;;;;;;;;;;;;;;10.17;60.31;101567.84;4984608;28;7003;-73
2023/01/03 01:18:44;;;;;;;;;;;;;;;10.13;60.11;101564.19;4981746;28;6811;-74
2023/01/03 01:21:18;;;;;;;;;;;;;;;10.12;59.71;101570.09;4985041;28;7305;-73
2023/01/03 01:23:45;;;;;;;;;;;;;;;10.11;60.12;101573.47;4965929;28;7205;-73
2023/01/03 01:26:15;;;;;;;;;;;;;;;10.08;59.61;101573.25;4959185;28;6927;-73
2023/01/03 01:28:41;;;;;;;;;;;;;;;10.06;59.87;101581.63;4961983;28;8131;-73
2023/01/03 01:31:09;;;;;;;;;;;;;;;10.01;59.67;101586.41;4961344;28;6792;-73
2023/01/03 01:33:36;;;;;;;;;;;;;;;10.00;60.15;101594.88;4959099;28;6943;-73
2023/01/03 01:36:15;;;;;;;;;;;;;;;9.98;60.22;101596.47;4977252;28;6791;-73
2023/01/03 01:38:41;;;;;;;;;;;;;;;9.97;59.90;101597.25;4944940;28;7003;-73
2023/01/03 01:41:06;;;;;;;;;;;;;;;9.95;59.65;101597.13;4956861;28;6974;-73
2023/01/03 01:46:24;;;;;;;;;;;;;;;9.92;60.32;101603.69;4959214;28;7928;-73
2023/01/03 01:48:56;;;;;;;;;;;;;;;9.89;61.03;101604.38;4975322;28;6982;-73
2023/01/03 01:51:27;;;;;;;;;;;;;;;9.89;60.76;101600.94;4960212;28;6800;-73
2023/01/03 01:53:55;;;;;;;;;;;;;;;9.89;60.79;101611.19;4960598;28;7090;-73
2023/01/03 01:56:28;;;;;;;;;;;;;;;9.86;60.16;101611.84;4954545;28;7005;-73
2023/01/03 01:58:54;;;;;;;;;;;;;;;9.86;60.58;101614.41;4986509;28;7108;-73
2023/01/03 02:01:22;;;;;;;;;;;;;;;9.85;60.38;101608.41;4956440;28;6784;-73
2023/01/03 02:04:08;;;;;;;;;;;;;;;9.86;60.87;101614.41;4974199;28;10165;-73
2023/01/03 02:06:34;;;;;;;;;;;;;;;9.85;60.08;101613.53;4955771;28;6808;-73
2023/01/03 02:09:00;;;;;;;;;;;;;;;9.82;60.98;101610.75;4985483;28;6780;-73
2023/01/03 02:13:04;;;;;;;;;;;;;;;9.81;60.48;101611.53;4960279;28;7207;-73
2023/01/03 02:15:13;;;;;;;;;;;;;;;9.79;60.34;101618.22;4954797;28;6995;-73
2023/01/03 02:18:13;;;;;;;;;;;;;;;9.76;60.54;101614.53;4958963;28;6836;-73
2023/01/03 02:21:23;;;;;;;;;;;;;;;9.71;60.91;101614.22;4959626;28;6828;-73
2023/01/03 02:24:26;;;;;;;;;;;;;;;9.66;60.91;101619.00;4959460;28;6819;-73
2023/01/03 02:27:31;;;;;;;;;;;;;;;9.60;61.07;101623.69;4954468;28;7022;-72
2023/01/03 02:30:25;;;;;;;;;;;;;;;9.56;61.16;101622.59;4951775;28;6837;-74
2023/01/03 02:33:31;;;;;;;;;;;;;;;9.54;61.36;101623.25;4956711;28;11175;-73
2023/01/03 02:36:23;;;;;;;;;;;;;;;9.47;60.65;101619.38;4950650;28;7179;-73
2023/01/03 02:39:18;;;;;;;;;;;;;;;9.44;61.38;101622.59;4981387;28;7231;-72
2023/01/03 02:42:56;;;;;;;;;;;;;;;9.41;61.14;101621.47;4942717;28;6811;-73
2023/01/03 02:45:04;;;;;;;;;;;;;;;9.41;59.86;101627.47;4956311;28;6843;-72
2023/01/03 02:48:02;;;;;;;;;;;;;;;9.39;60.53;101628.16;4956516;28;7042;-73
2023/01/03 02:50:37;;;;;;;;;;;;;;;9.34;59.93;101632.03;4951176;28;7004;-73
2023/01/03 02:53:11;;;;;;;;;;;;;;;9.28;60.45;101633.41;4955857;28;6871;-73
2023/01/03 02:55:38;;;;;;;;;;;;;;;9.23;59.99;101634.72;4952940;28;6969;-73
2023/01/03 02:58:19;;;;;;;;;;;;;;;9.15;60.28;101623.94;4956053;28;7229;-73
2023/01/03 03:00:50;;;;;;;;;;;;;;;9.10;59.83;101629.47;4973682;28;6896;-72
2023/01/03 03:03:27;;;;;;;;;;;;;;;9.05;60.35;101629.16;4985439;28;6804;-72
2023/01/03 03:06:12;;;;;;;;;;;;;;;9.00;61.06;101628.81;4943244;28;7306;-73
2023/01/03 03:08:38;;;;;;;;;;;;;;;8.97;61.24;101631.09;4969055;28;6995;-73
2023/01/03 03:14:16;;;;;;;;;;;;;;;8.92;60.08;101629.91;4959588;28;6796;-72
2023/01/03 03:16:48;;;;;;;;;;;;;;;8.90;60.74;101636.56;4955655;28;6800;-73
2023/01/03 03:25:40;;;;;;;;;;;;;;;8.80;60.97;101621.31;4962533;28;7572;-73
2023/01/03 03:31:07;;;;;;;;;;;;;;;8.83;61.59;101630.09;4960324;28;7932;-73
2023/01/03 03:33:43;;;;;;;;;;;;;;;8.86;61.05;101624.31;4989748;28;6974;-73
2023/01/03 03:36:16;;;;;;;;;;;;;;;8.88;60.74;101621.09;4977788;28;6808;-72
2023/01/03 03:38:43;;;;;;;;;;;;;;;8.91;61.41;101623.00;4959530;28;6788;-73
2023/01/03 03:47:47;;;;;;;;;;;;;;;9.03;61.25;101612.81;4967870;28;6792;-72
2023/01/03 03:50:23;;;;;;;;;;;;;;;9.12;61.45;101612.56;4958165;28;7344;-71
2023/01/03 03:52:56;;;;;;;;;;;;;;;9.22;62.47;101615.03;4959590;28;6808;-71
2023/01/03 03:55:34;;;;;;;;;;;;;;;9.30;62.12;101610.47;4975269;28;7236;-71
2023/01/03 03:58:28;;;;;;;;;;;;;;;9.38;62.14;101616.16;4987914;28;6860;-71
2023/01/03 04:00:56;;;;;;;;;;;;;;;9.45;61.16;101618.34;4954606;28;6954;-71
2023/01/03 04:03:24;;;;;;;;;;;;;;;9.49;62.35;101622.94;4958147;28;6889;-71
2023/01/03 04:05:58;;;;;;;;;;;;;;;9.52;61.57;101615.47;4959375;28;6872;-71
2023/01/03 04:08:24;;;;;;;;;;;;;;;9.57;61.64;101621.81;4962955;28;6872;-71
2023/01/03 04:10:50;;;;;;;;;;;;;;;9.62;61.81;101622.16;4961787;28;7223;-71
2023/01/03 04:13:16;;;;;;;;;;;;;;;9.67;61.70;101619.91;4983166;28;7198;-71
2023/01/03 04:15:41;;;;;;;;;;;;;;;9.70;62.19;101615.88;4957471;28;6772;-71
2023/01/03 04:18:07;;;;;;;;;;;;;;;9.73;61.49;101620.31;4950658;28;8078;-71
2023/01/03 04:20:33;;;;;;;;;;;;;;;9.73;61.43;101618.66;4975671;28;7186;-71
2023/01/03 04:22:58;;;;;;;;;;;;;;;9.75;62.11;101617.88;4956597;28;6809;-72
2023/01/03 04:25:24;;;;;;;;;;;;;;;9.75;61.70;101613.63;4959358;28;6780;-71
2023/01/03 04:27:50;;;;;;;;;;;;;;;9.75;61.06;101615.31;4949043;28;6934;-73
2023/01/03 04:30:16;;;;;;;;;;;;;;;9.75;62.04;101616.19;4947888;28;6844;-73
2023/01/03 04:32:42;;;;;;;;;;;;;;;9.76;61.52;101605.19;4979610;28;6792;-73
2023/01/03 04:35:08;;;;;;;;;;;;;;;9.78;61.75;101610.41;4955295;28;6848;-74
2023/01/03 04:37:34;;;;;;;;;;;;;;;9.82;61.77;101608.19;4955595;28;6788;-74
2023/01/03 04:39:59;;;;;;;;;;;;;;;9.86;62.65;101617.88;4960077;28;7191;-73
2023/01/03 04:45:10;;;;;;;;;;;;;;;10.02;62.97;101623.19;4958766;28;6812;-74
2023/01/03 04:47:36;;;;;;;;;;;;;;;10.10;62.44;101604.97;4949359;28;7011;-74
2023/01/03 04:50:02;;;;;;;;;;;;;;;10.18;62.36;101605.50;4994889;28;6952;-73
2023/01/03 04:52:28;;;;;;;;;;;;;;;10.25;61.83;101611.97;4912655;28;1066922;-71
2023/01/03 04:54:54;;;;;;;;;;;;;;;10.29;61.52;101608.81;4962008;28;6960;-71
2023/01/03 04:57:19;;;;;;;;;;;;;;;10.31;61.13;101611.50;4955275;28;6936;-71
2023/01/03 04:59:45;;;;;;;;;;;;;;;10.28;61.56;101610.50;4955905;28;6792;-71
2023/01/03 05:02:11;;;;;;;;;;;;;;;10.26;61.09;101609.47;4947899;28;6776;-71
2023/01/03 05:04:36;;;;;;;;;;;;;;;10.23;61.23;101605.81;4953599;28;6830;-71
2023/01/03 05:07:02;;;;;;;;;;;;;;;10.21;60.91;101594.59;4956381;28;7138;-72
2023/01/03 05:09:27;;;;;;;;;;;;;;;10.21;61.50;101599.72;4959310;28;6884;-71
2023/01/03 05:11:53;;;;;;;;;;;;;;;10.20;61.09;101597.94;4964170;28;6843;-72
2023/01/03 05:14:19;;;;;;;;;;;;;;;10.21;61.28;101589.47;4959314;28;7191;-71
2023/01/03 05:16:45;;;;;;;;;;;;;;;10.19;60.88;101591.94;4956933;28;6832;-71
2023/01/03 05:19:10;;;;;;;;;;;;;;;10.17;60.82;101590.91;4971015;28;7078;-71
2023/01/03 05:27:05;;;;;;;;;;;;;;;10.12;60.62;101595.72;4958370;28;6812;-71
2023/01/03 05:29:35;;;;;;;;;;;;;;;10.11;60.36;101593.94;4961307;28;7746;-72
2023/01/03 05:32:00;;;;;;;;;;;;;;;10.10;60.68;101604.13;4952261;28;7981;-72
2023/01/03 05:34:26;;;;;;;;;;;;;;;10.11;60.50;101605.88;4961693;28;6832;-72
2023/01/03 05:36:52;;;;;;;;;;;;;;;10.11;60.72;101595.63;4965109;28;7238;-71
2023/01/03 05:39:17;;;;;;;;;;;;;;;10.11;60.85;101600.75;4955739;28;7343;-71
2023/01/03 05:41:58;;;;;;;;;;;;;;;10.12;60.75;101605.09;4984343;28;7237;-71
2023/01/03 05:44:25;;;;;;;;;;;;;;;10.10;61.04;101599.00;4954587;28;6875;-71
2023/01/03 05:46:50;;;;;;;;;;;;;;;10.10;61.12;101602.41;4956738;28;7077;-71
2023/01/03 05:49:17;;;;;;;;;;;;;;;10.14;60.89;101603.53;4962593;28;6788;-71
2023/01/03 05:51:42;;;;;;;;;;;;;;;10.17;61.22;101590.03;4973800;28;6977;-72
2023/01/03 05:54:14;;;;;;;;;;;;;;;10.21;60.69;101589.47;4983180;28;7429;-71
2023/01/03 05:56:40;;;;;;;;;;;;;;;10.22;61.12;101601.47;4958693;28;6797;-71
2023/01/03 05:59:08;;;;;;;;;;;;;;;10.23;60.43;101595.56;4955005;28;6831;-71
2023/01/03 06:01:34;;;;;;;;;;;;;;;10.23;60.45;101595.56;4935611;28;6999;-72
2023/01/03 06:04:00;;;;;;;;;;;;;;;10.22;60.00;101592.13;4944318;28;6955;-71
2023/01/03 06:06:26;;;;;;;;;;;;;;;10.20;60.03;101592.81;4955698;28;6952;-72
2023/01/03 06:08:52;;;;;;;;;;;;;;;10.16;60.02;101599.38;4962653;28;6960;-72
2023/01/03 06:11:18;;;;;;;;;;;;;;;10.14;60.32;101604.44;4961836;28;7185;-72
2023/01/03 06:13:44;;;;;;;;;;;;;;;10.13;60.35;101596.63;4965232;28;6760;-72
2023/01/03 06:19:03;;;;;;;;;;;;;;;10.14;59.92;101601.88;4983243;28;6804;-71
2023/01/03 06:21:28;;;;;;;;;;;;;;;10.17;59.34;101600.28;4960394;28;7106;-74
2023/01/03 06:23:54;;;;;;;;;;;;;;;10.13;60.25;101589.81;4960584;28;6955;-73
2023/01/03 06:26:23;;;;;;;;;;;;;;;10.09;59.92;101589.50;4980120;28;7125;-74
2023/01/03 06:28:50;;;;;;;;;;;;;;;10.03;59.35;101591.66;4957168;28;7169;-73
2023/01/03 06:31:17;;;;;;;;;;;;;;;9.98;59.07;101596.47;4959989;28;6784;-73
2023/01/03 06:33:42;;;;;;;;;;;;;;;9.92;59.90;101590.91;4958253;28;6800;-73
2023/01/03 06:36:12;;;;;;;;;;;;;;;9.86;59.30;101592.25;4964156;28;6859;-74
2023/01/03 06:38:39;;;;;;;;;;;;;;;9.79;59.30;101592.59;4957850;28;7096;-74
2023/01/03 06:41:05;;;;;;;;;;;;;;;9.76;59.60;101594.97;4988584;28;7157;-73
2023/01/03 06:43:31;;;;;;;;;;;;;;;9.77;59.95;101596.75;4988455;28;6964;-73
2023/01/03 06:54:31;;;;;;;;;;;;;;;9.90;60.88;101595.03;4955059;28;7112;-74
2023/01/03 06:56:58;;;;;;;;;;;;;;;9.95;60.88;101586.88;4982013;28;7313;-74
2023/01/03 06:59:24;;;;;;;;;;;;;;;10.02;60.71;101587.31;4986516;28;7522;-73
2023/01/03 07:01:52;;;;;;;;;;;;;;;10.05;60.05;101588.44;4956958;28;6844;-74
2023/01/03 07:04:19;;;;;;;;;;;;;;;10.11;60.64;101587.97;4954147;28;6863;-74
2023/01/03 07:06:45;;;;;;;;;;;;;;;10.16;60.77;101588.28;4960302;28;7913;-74
2023/01/03 07:09:11;;;;;;;;;;;;;;;10.21;60.71;101590.38;4973232;28;6956;-75
2023/01/03 07:11:38;;;;;;;;;;;;;;;10.27;60.32;101590.75;4958833;28;6804;-74
2023/01/03 07:14:07;;;;;;;;;;;;;;;10.34;60.96;101588.63;4962927;28;7176;-73
2023/01/03 07:16:38;;;;;;;;;;;;;;;10.40;60.43;101581.38;4973736;28;8008;-74
2023/01/03 07:19:09;;;;;;;;;;;;;;;10.44;60.66;101588.50;4956213;28;6777;-74
2023/01/03 07:21:35;;;;;;;;;;;;;;;10.47;60.37;101591.25;4958450;28;6975;-74
2023/01/03 07:24:04;;;;;;;;;;;;;;;10.50;60.23;101591.47;4972593;28;7192;-73
2023/01/03 07:26:32;;;;;;;;;;;;;;;10.51;60.41;101589.78;4986188;28;6816;-74
2023/01/03 07:29:01;;;;;;;;;;;;;;;10.51;60.14;101594.91;4962028;28;7193;-73
2023/01/03 07:31:26;;;;;;;;;;;;;;;10.52;59.78;101596.69;4960406;28;6804;-73
2023/01/03 07:33:52;;;;;;;;;;;;;;;10.50;59.93;101588.91;4971319;28;7097;-73
2023/01/03 07:36:20;;;;;;;;;;;;;;;10.53;60.00;101594.25;4957046;28;6768;-72
2023/01/03 07:38:46;;;;;;;;;;;;;;;10.58;60.21;101601.38;4984912;28;6797;-73
2023/01/03 07:41:14;;;;;;;;;;;;;;;10.64;60.44;101597.53;4957254;28;6780;-72
2023/01/03 07:43:44;;;;;;;;;;;;;;;10.71;60.71;101601.41;4962930;28;6784;-73
2023/01/03 07:46:23;;;;;;;;;;;;;;;10.81;60.43;101601.22;4959302;28;6800;-72
2023/01/03 07:48:53;;;;;;;;;;;;;;;10.89;60.52;101598.28;4965537;28;7504;-73
2023/01/03 07:51:21;;;;;;;;;;;;;;;10.97;59.87;101602.25;4947628;28;7416;-72
2023/01/03 07:53:52;;;;;;;;;;;;;;;11.03;60.01;101600.06;4925220;28;6864;-72
2023/01/03 07:56:19;;;;;;;;;;;;;;;11.07;59.79;101599.50;4955960;28;6800;-72
2023/01/03 07:58:47;;;;;;;;;;;;;;;11.09;59.57;101608.16;4957747;28;6968;-73
2023/01/03 08:01:20;;;;;;;;;;;;;;;11.07;59.44;101606.28;4939529;28;7036;-72
2023/01/03 08:03:46;;;;;;;;;;;;;;;11.05;59.72;101605.31;4919348;28;7182;-73
2023/01/03 08:06:18;;;;;;;;;;;;;;;11.01;59.48;101604.22;4939879;28;6868;-73
2023/01/03 08:08:44;;;;;;;;;;;;;;;11.01;59.48;101618.69;4944861;28;6816;-72
2023/01/03 08:13:58;;;;;;;;;;;;;;;10.96;59.57;101636.34;4941768;28;6796;-73
2023/01/03 08:16:24;;;;;;;;;;;;;;;10.98;59.23;101640.81;4955365;28;7243;-73
2023/01/03 08:18:51;;;;;;;;;;;;;;;10.98;59.61;101640.81;4942112;28;7209;-72
2023/01/03 08:21:16;;;;;;;;;;;;;;;10.97;59.71;101633.91;4957320;28;6843;-73
2023/01/03 08:23:42;;;;;;;;;;;;;;;11.01;59.78;101641.78;4957010;28;6780;-73
2023/01/03 08:26:13;;;;;;;;;;;;;;;11.03;59.76;101643.66;4941155;28;6780;-73
2023/01/03 08:28:40;;;;;;;;;;;;;;;11.10;59.53;101635.59;4957768;28;7869;-72
2023/01/03 08:31:16;;;;;;;;;;;;;;;11.20;60.25;101637.09;4941016;28;6826;-73
2023/01/03 08:33:59;;;;;;;;;;;;;;;11.30;60.13;101640.25;4955965;28;6991;-72
2023/01/03 08:36:31;;;;;;;;;;;;;;;11.37;59.99;101639.84;4954140;28;7385;-73
2023/01/03 08:39:14;;;;;;;;;;;;;;;11.49;60.38;101643.22;4943286;28;7684;-72
2023/01/03 08:41:49;;;;;;;;;;;;;;;11.61;60.07;101630.25;4941573;28;7265;-73
2023/01/03 08:44:15;;;;;;;;;;;;;;;11.68;59.55;101636.66;4955843;28;6800;-73
2023/01/03 08:46:48;;;;;;;;;;;;;;;11.67;59.81;101625.53;4942426;28;7023;-72
2023/01/03 08:49:14;;;;;;;;;;;;;;;11.65;59.89;101644.19;4945441;28;6852;-73
2023/01/03 08:51:39;;;;;;;;;;;;;;;11.62;59.92;101647.44;4958442;28;7227;-73
2023/01/03 08:54:05;;;;;;;;;;;;;;;11.60;59.33;101630.19;4953269;28;7757;-73
2023/01/03 08:56:33;;;;;;;;;;;;;;;11.58;59.28;101649.72;4954457;28;7161;-73
2023/01/03 08:58:59;;;;;;;;;;;;;;;11.55;59.90;101644.41;4968486;28;6776;-72
2023/01/03 09:01:25;;;;;;;;;;;;;;;11.50;60.20;101644.09;4944088;28;7908;-72
2023/01/03 09:03:51;;;;;;;;;;;;;;;11.47;60.14;101654.19;4964318;28;6978;-72
2023/01/03 09:06:16;;;;;;;;;;;;;;;11.46;60.20;101648.16;4961186;28;7002;-72
2023/01/03 09:08:42;;;;;;;;;;;;;;;11.46;59.99;101649.84;4961695;28;6772;-72
2023/01/03 09:11:09;;;;;;;;;;;;;;;11.49;60.30;101658.63;4961865;28;6792;-73
2023/01/03 09:13:36;;;;;;;;;;;;;;;11.52;60.15;101666.53;4985649;28;6808;-73
2023/01/03 09:16:08;;;;;;;;;;;;;;;11.59;60.66;101662.66;4956810;28;6856;-73
2023/01/03 09:18:37;;;;;;;;;;;;;;;11.66;60.12;101669.97;4987593;28;6788;-72
2023/01/03 09:21:03;;;;;;;;;;;;;;;11.71;60.13;101664.22;4975785;28;7208;-72
2023/01/03 09:23:30;;;;;;;;;;;;;;;11.83;60.37;101669.28;4959977;28;6780;-73
2023/01/03 09:25:56;;;;;;;;;;;;;;;11.93;60.18;101663.91;4958579;28;6784;-72
2023/01/03 09:28:22;;;;;;;;;;;;;;;11.99;59.95;101653.13;4971485;28;7031;-72
2023/01/03 09:30:48;;;;;;;;;;;;;;;12.00;59.65;101660.94;4943042;28;7191;-72
2023/01/03 09:33:13;;;;;;;;;;;;;;;12.02;59.37;101661.97;4977515;28;6972;-72
2023/01/03 09:35:39;;;;;;;;;;;;;;;12.03;60.03;101656.03;4959290;28;6788;-72
2023/01/03 09:38:05;;;;;;;;;;;;;;;12.03;59.56;101652.59;4960396;28;6792;-73
2023/01/03 09:40:44;;;;;;;;;;;;;;;12.07;59.78;101646.81;4961193;28;7292;-73
2023/01/03 09:43:21;;;;;;;;;;;;;;;12.10;59.67;101652.16;4973390;28;6871;-73
2023/01/03 09:45:57;;;;;;;;;;;;;;;12.12;59.77;101654.81;4963114;28;6978;-72
2023/01/03 09:48:34;;;;;;;;;;;;;;;12.16;59.29;101659.34;4976839;28;6788;-72
2023/01/03 09:51:00;;;;;;;;;;;;;;;12.21;59.74;101661.41;4956621;28;7328;-73
2023/01/03 10:05:39;;;;;;;;;;;;;;;12.52;59.68;101667.53;4958142;28;6832;-72
2023/01/03 10:08:30;;;;;;;;;;;;;;;12.62;59.00;101661.28;4956717;28;6804;-72
2023/01/03 10:11:08;;;;;;;;;;;;;;;12.74;60.05;101663.66;4969144;28;7392;-72
2023/01/03 10:14:31;;;;;;;;;;;;;;;12.88;59.94;101675.66;4963884;28;6789;-73
2023/01/03 10:17:18;;;;;;;;;;;;;;;13.03;59.22;101674.78;4957374;28;6827;-72
2023/01/03 10:20:20;;;;;;;;;;;;;;;13.28;59.95;101673.63;4979390;28;7412;-73
2023/01/03 10:22:48;;;;;;;;;;;;;;;13.50;58.38;101669.72;4961032;28;7271;-73
2023/01/03 10:25:20;;;;;;;;;;;;;;;13.70;59.03;101665.72;4956107;28;6800;-73
2023/01/03 10:27:55;;;;;;;;;;;;;;;13.78;57.51;101661.88;4989270;28;7583;-72
2023/01/03 10:30:46;;;;;;;;;;;;;;;13.86;57.86;101662.28;4958237;28;6831;-73
2023/01/03 10:33:44;;;;;;;;;;;;;;;13.84;56.63;101671.63;4958837;28;7005;-72
2023/01/03 10:36:11;;;;;;;;;;;;;;;13.86;56.81;101659.69;4958330;28;7188;-73
2023/01/03 10:38:38;;;;;;;;;;;;;;;13.86;56.66;101667.44;4954181;28;6860;-73
2023/01/03 10:41:32;;;;;;;;;;;;;;;13.83;56.41;101656.97;4956772;28;7260;-73
2023/01/03 10:44:02;;;;;;;;;;;;;;;13.78;56.82;101664.44;4963465;28;7110;-73
2023/01/03 10:46:29;;;;;;;;;;;;;;;13.78;56.32;101653.22;4958316;28;6808;-73
2023/01/03 10:49:13;;;;;;;;;;;;;;;13.77;56.35;101665.25;4962736;28;6780;-73
2023/01/03 10:52:14;;;;;;;;;;;;;;;13.78;56.01;101660.97;4955514;28;6941;-72
2023/01/03 10:54:40;;;;;;;;;;;;;;;13.75;55.76;101656.53;4961472;28;6800;-74
2023/01/03 10:57:06;;;;;;;;;;;;;;;13.79;56.43;101642.13;4955280;28;6999;-72
2023/01/03 10:59:33;;;;;;;;;;;;;;;13.79;56.01;101643.03;4955743;28;7928;-73
2023/01/03 11:02:11;;;;;;;;;;;;;;;13.85;55.32;101648.50;4982587;28;7009;-73
2023/01/03 11:04:38;;;;;;;;;;;;;;;13.90;55.53;101635.84;4963256;28;6999;-73
2023/01/03 11:07:06;;;;;;;;;;;;;;;13.95;55.38;101638.69;4958979;28;6796;-73
2023/01/03 11:09:56;;;;;;;;;;;;;;;13.99;55.76;101631.19;4956609;28;6776;-73
2023/01/03 11:12:36;;;;;;;;;;;;;;;14.09;55.76;101647.16;4954928;28;6807;-73
2023/01/03 11:15:29;;;;;;;;;;;;;;;14.13;54.74;101633.66;4966803;28;7459;-72
2023/01/03 11:18:00;;;;;;;;;;;;;;;14.18;54.96;101632.19;4957502;28;6808;-73
2023/01/03 11:20:39;;;;;;;;;;;;;;;14.23;54.55;101643.63;4964674;28;6796;-73
2023/01/03 11:23:18;;;;;;;;;;;;;;;14.31;54.94;101638.88;4966561;28;6989;-73
2023/01/03 11:26:20;;;;;;;;;;;;;;;14.35;55.19;101640.81;4965346;28;6962;-73
2023/01/03 11:29:21;;;;;;;;;;;;;;;14.40;54.38;101643.66;4967163;28;7005;-73
2023/01/03 11:32:01;;;;;;;;;;;;;;;14.43;54.32;101639.50;4987648;28;7010;-73
2023/01/03 11:35:17;;;;;;;;;;;;;;;14.37;53.76;101628.00;4984765;28;6903;-73
2023/01/03 11:38:05;;;;;;;;;;;;;;;14.38;53.42;101622.91;4990143;28;6847;-73
2023/01/03 11:41:11;;;;;;;;;;;;;;;14.38;52.88;101629.75;4960522;28;6805;-73
2023/01/03 11:43:51;;;;;;;;;;;;;;;14.39;52.73;101628.94;4958859;28;6820;-73
2023/01/03 11:47:10;;;;;;;;;;;;;;;14.69;53.03;101628.78;4957536;28;8607;-73
2023/01/03 11:50:07;;;;;;;;;;;;;;;15.58;51.29;101618.47;4945927;28;6828;-73
2023/01/03 11:52:58;;;;;;;;;;;;;;;16.31;49.42;101603.66;4957631;28;6819;-73
2023/01/03 11:55:58;;;;;;;;;;;;;;;17.02;48.44;101612.66;4957993;28;6808;-73
2023/01/03 11:58:56;;;;;;;;;;;;;;;17.63;46.84;101611.59;4976496;28;6812;-73
2023/01/03 12:01:25;;;;;;;;;;;;;;;18.06;45.84;101611.50;4987947;28;7283;-72
2023/01/03 12:04:23;;;;;;;;;;;;;;;18.36;44.88;101597.84;4961204;28;6795;-72
2023/01/03 12:07:14;;;;;;;;;;;;;;;18.39;45.17;101600.53;4976551;28;7208;-72
2023/01/03 12:10:16;;;;;;;;;;;;;;;18.37;44.08;101597.00;4966569;28;6880;-72
2023/01/03 12:13:12;;;;;;;;;;;;;;;18.03;44.11;101603.53;4977831;28;8065;-73
2023/01/03 12:16:00;;;;;;;;;;;;;;;17.50;44.34;101599.00;4958192;28;8006;-73
2023/01/03 12:19:03;;;;;;;;;;;;;;;16.96;44.75;101595.13;4977460;28;6796;-72
2023/01/03 12:21:43;;;;;;;;;;;;;;;16.52;45.40;101593.34;4962231;28;6867;-72
2023/01/03 12:24:25;;;;;;;;;;;;;;;16.16;46.12;101592.63;4965438;28;6795;-73
2023/01/03 12:26:56;;;;;;;;;;;;;;;15.80;45.97;101599.69;4964220;28;7366;-73
2023/01/03 12:29:55;;;;;;;;;;;;;;;15.61;46.67;101594.47;4964942;28;7175;-72
2023/01/03 12:32:38;;;;;;;;;;;;;;;15.35;46.79;101594.13;4959530;28;6815;-72
2023/01/03 12:35:28;;;;;;;;;;;;;;;15.12;47.64;101589.63;4963929;28;6947;-73
2023/01/03 12:37:57;;;;;;;;;;;;;;;14.98;47.56;101594.13;4969005;28;7150;-72
2023/01/03 12:40:33;;;;;;;;;;;;;;;14.82;47.94;101592.47;4956601;28;6804;-72
2023/01/03 12:43:08;;;;;;;;;;;;;;;14.78;48.14;101581.94;4964413;28;6816;-72
2023/01/03 12:45:55;;;;;;;;;;;;;;;14.71;47.92;101591.91;4980008;28;7262;-72
2023/01/03 12:49:05;;;;;;;;;;;;;;;14.68;47.71;101589.19;4965144;28;7012;-72
2023/01/03 12:51:31;;;;;;;;;;;;;;;14.57;48.83;101601.53;4961620;28;6820;-73
2023/01/03 12:54:36;;;;;;;;;;;;;;;14.55;48.20;101597.97;4959202;28;6835;-72
2023/01/03 12:57:26;;;;;;;;;;;;;;;14.57;49.41;101598.06;4957336;28;6975;-72
2023/01/03 13:00:25;;;;;;;;;;;;;;;14.54;49.10;101603.09;4961755;28;6955;-73
2023/01/03 13:03:33;;;;;;;;;;;;;;;14.53;48.83;101589.28;4941333;28;11553;-72
2023/01/03 13:06:28;;;;;;;;;;;;;;;14.51;49.37;101590.00;4938362;28;6824;-73
2023/01/03 13:09:06;;;;;;;;;;;;;;;14.47;48.98;101575.19;4958823;28;7213;-72
2023/01/03 13:11:47;;;;;;;;;;;;;;;14.48;49.34;101574.38;4961165;28;6896;-72
2023/01/03 13:14:26;;;;;;;;;;;;;;;14.47;49.84;101577.78;4961676;28;6954;-72
2023/01/03 13:17:17;;;;;;;;;;;;;;;14.43;49.30;101587.91;4959551;28;7007;-72
2023/01/03 13:20:31;;;;;;;;;;;;;;;14.44;49.08;101586.25;4970488;28;7023;-72
2023/01/03 13:23:20;;;;;;;;;;;;;;;14.42;49.52;101580.13;4959449;28;7090;-72
2023/01/03 13:26:26;;;;;;;;;;;;;;;14.40;49.56;101584.31;4963774;28;7003;-73
2023/01/03 13:29:33;;;;;;;;;;;;;;;14.33;49.15;101583.09;4960566;28;7438;-72
2023/01/03 13:32:22;;;;;;;;;;;;;;;14.23;49.62;101581.75;4958483;28;7134;-72
2023/01/03 13:34:56;;;;;;;;;;;;;;;14.15;48.98;101575.31;4959023;28;7265;-72
2023/01/03 13:37:28;;;;;;;;;;;;;;;14.10;48.96;101574.16;4958151;28;7231;-72
2023/01/03 13:40:10;;;;;;;;;;;;;;;14.06;49.75;101570.56;4990047;28;7243;-72
2023/01/03 13:42:38;;;;;;;;;;;;;;;14.01;49.86;101580.63;4960967;28;6991;-73
2023/01/03 13:45:22;;;;;;;;;;;;;;;13.98;50.04;101566.69;4979448;28;7217;-72
2023/01/03 13:47:53;;;;;;;;;;;;;;;13.92;49.37;101571.53;4974001;28;9053;-72
2023/01/03 13:50:34;;;;;;;;;;;;;;;13.88;49.42;101565.31;4959750;28;7158;-72
2023/01/03 13:53:23;;;;;;;;;;;;;;;13.88;49.94;101570.47;4958434;28;6966;-73
2023/01/03 13:56:21;;;;;;;;;;;;;;;13.88;49.39;101580.78;4958997;28;6808;-72
2023/01/03 13:58:53;;;;;;;;;;;;;;;13.86;49.84;101566.94;4961285;28;6796;-73
2023/01/03 14:01:39;;;;;;;;;;;;;;;13.83;50.36;101564.19;4962349;28;7336;-72
2023/01/03 14:04:57;;;;;;;;;;;;;;;13.87;49.62;101574.75;4961187;28;6800;-72
2023/01/03 14:07:38;;;;;;;;;;;;;;;13.94;50.59;101569.91;4957615;28;6819;-73
2023/01/03 14:10:49;;;;;;;;;;;;;;;13.98;49.66;101577.88;4955359;28;6808;-72
2023/01/03 14:13:54;;;;;;;;;;;;;;;14.03;50.50;101573.88;4963765;28;7247;-72
2023/01/03 14:16:45;;;;;;;;;;;;;;;14.07;49.81;101568.84;4982625;28;7367;-73
2023/01/03 14:19:24;;;;;;;;;;;;;;;14.11;49.42;101569.09;4962437;28;6838;-73
2023/01/03 14:22:02;;;;;;;;;;;;;;;14.07;49.40;101555.97;4957263;28;6998;-73
2023/01/03 14:24:32;;;;;;;;;;;;;;;14.04;49.31;101564.44;4955202;28;7285;-73
2023/01/03 14:27:15;;;;;;;;;;;;;;;13.99;49.02;101563.31;4972294;28;6940;-73
2023/01/03 14:29:48;;;;;;;;;;;;;;;13.97;49.73;101557.19;4958215;28;7225;-73